Pagrindinis puslapis
METAR-TAF:

METAR-TAF

Oro uostai :

Seward, Aliaska, Jungtinės Amerikos Valstijos

platuma: 60-07N, ilguma: 149-27W, Aukštis: 9 m

Dabartinis oras

Ataskaita buvo paskelbta 34 minutes, ne 20:53 UTC
Vėjas 12 kt iš Šiaurės su gūsio iki 25 kt
Temperatūra 12°C
Drėgmė 58%
Slėgis 994 hPa
Matomumas: 16.1 km
Išsisklaidę debesys ne aukštis 4300 ft
Su prošvaistėmis ne aukštis 6000 ft

METAR: PAWD 212053Z AUTO 35012G25KT 10SM SCT043 BKN060 12/04 A2936 RMK AO2 SLP941 T01220039 51019 TSNO

Laikas: 13:27 (21:27 UTC)


TAF: trūkstamas

Orai ataskaitas ir orų prognozės (METAR, TAF).

turimą stotys yra geltonos ir raudonos taškus žemėlapyje.

Perkelti pele per norėdami pamatyti stoties vardą.

Tada spustelėkite, norėdami matyti oro stebėjimo ir prognozės.

Norėdami pakeisti žemėlapį: spustelėkite ant žalios mygtukų su juodo kryžiaus žemyn,; žalią mygtuką su brūkšneliu, jei norite nutolinti; arba žalių rodyklių gretimoms žemėlapius.


METAR-TAF: